Nearby METAR Reports

 

KMLI - Moline/Quad City, Illinois, USA
Distance from station: ENE 4mi, 7km
Updated: 02/18/2019 6:39am
Overcast
Overcast
 Wind from W
Wind: W 6 mph , 9 km/h
Temperature: 18°F , -8°C
Wind Chill: 10°F , -12°C
Dew Point: 14°F , -10°C
Humidity: 86%
Barometer: 30.24 inHg , 1024 hPa
Clouds: Overcast
Visibility: 9 miles , 14 km
Cloud details: Overcast 3100 ft
2019/02/18 12:39 KMLI 181239Z 28005KT 9SM OVC031 M08/M10 A3024 RMK AO2 T10831100
KDVN - Davenport/Quad C, Iowa, USA
Distance from station: N 14mi, 22km
Updated: 02/18/2019 6:29am
Partly cloudy
Partly cloudy
 Wind from NNW
Wind: NNW 8 mph , 13 km/h
Temperature: 12°F , -11°C
Wind Chill: 0°F , -18°C
Dew Point: 9°F , -13°C
Humidity: 85%
Barometer: 30.24 inHg , 1024 hPa
Clouds: Partly cloudy
Visibility: 9 miles , 14 km
Cloud details: Partly cloudy 2500 ft
2019/02/18 12:29 KDVN 181229Z AUTO 33007KT 9SM SCT025 M11/M13 A3024 RMK AO2 I1000 T11111128
 
KMUT - Muscatine, Iowa, USA
Distance from station: W 29mi, 47km
Updated: 02/18/2019 6:35am
Mostly cloudy
Mostly cloudy
 Wind from NW
Wind: NW 8 mph , 13 km/h
Temperature: 16°F , -9°C
Wind Chill: 5°F , -15°C
Dew Point: 12°F , -11°C
Humidity: 86%
Barometer: 30.27 inHg , 1025.1 hPa
Clouds: Mostly cloudy
Visibility: 10 miles , 16 km
Cloud details: Mostly cloudy 2700 ft
2019/02/18 12:35 KMUT 181235Z AUTO 31007KT 10SM BKN027 M09/M11 A3027 RMK AO2
KCWI - Clinton Muni, Iowa, USA
Distance from station: NNE 31mi, 50km
Updated: 02/18/2019 6:42am
Light snow, Few clouds
Light snow, Few clouds
 Wind from N
Wind: N 9 mph , 15 km/h
Temperature: 12°F , -11°C
Wind Chill: -0°F , -18°C
Dew Point: 10°F , -12°C
Humidity: 92%
Barometer: 30.24 inHg , 1024 hPa
Summary: Light Snow
Clouds: Few Clouds
Visibility: 9 miles , 14 km
Cloud details: Few Clouds 1900 ft
2019/02/18 12:42 KCWI 181242Z AUTO 35008KT 9SM -SN FEW019 M11/M12 A3024 RMK AO2 P0000 FZRANO
 
KGBG - Galesburg, Illinois, USA
Distance from station: SSE 35mi, 56km
Updated: 02/18/2019 6:35am
Overcast
Overcast
 Wind from WNW
Wind: WNW 7 mph , 11 km/h
Temperature: 18°F , -8°C
Wind Chill: 9°F , -13°C
Dew Point: 16°F , -9°C
Humidity: 93%
Barometer: 30.24 inHg , 1024 hPa
Clouds: Overcast
Visibility: 10 miles , 16 km
Cloud details: Overcast 11000 ft
2019/02/18 12:35 KGBG 181235Z AUTO 30006KT 10SM OVC110 M08/M09 A3024 RMK AO2 T10821095
KSFY - Savanna/Tritown, Illinois, USA
Distance from station: NNE 50mi, 80km
Updated: 02/18/2019 6:18am
Overcast
Overcast
 Wind from N
Wind: N 8 mph , 13 km/h
Temperature: 19°F , -7°C
Wind Chill: 9°F , -13°C
Dew Point: 14°F , -10°C
Humidity: 79%
Barometer: 30.22 inHg , 1023.4 hPa
Clouds: Overcast
Visibility: 10 miles , 16 km
Cloud details: Partly cloudy 4000 ft
Mostly cloudy 4600 ft
Overcast 11000 ft
2019/02/18 12:18 KSFY 181218Z AUTO 35007KT 10SM SCT040 BKN046 OVC110 M07/M10 A3022 RMK AO2